Time;durP1;ratioP1;P1;durP2;ratioP2;P2;SDS_P1;SDS_P2;PMS_P1;PMS_P2;Temp;Humidity;BMP_temperature;BMP_pressure;BME280_temperature;BME280_humidity;BME280_pressure;Samples;Min_cycle;Max_cycle;Signal;HPM_P1;HPM_P2
2021/12/24 00:01:04;;;;;;;6.18;3.30;;;;;;;11.23;71.06;99515.28;4968089;28;20405;-91
2021/12/24 00:03:30;;;;;;;7.97;3.80;;;;;;;11.17;71.17;99512.88;4974073;28;20395;-89
2021/12/24 00:05:55;;;;;;;5.80;2.90;;;;;;;10.83;71.46;99452.25;4957091;28;20026;-91
2021/12/24 00:08:21;;;;;;;7.53;3.60;;;;;;;10.69;70.79;99432.47;4972081;28;20573;-91
2021/12/24 00:10:56;;;;;;;6.40;3.35;;;;;;;10.69;71.50;99445.78;4973305;28;20081;-91
2021/12/24 00:13:22;;;;;;;8.13;3.55;;;;;;;11.03;72.61;99517.91;4971729;28;20014;-91
2021/12/24 00:15:53;;;;;;;7.65;3.85;;;;;;;10.72;72.68;99498.84;4939174;28;20026;-90
2021/12/24 00:37:07;;;;;;;8.80;4.05;;;;;;;10.60;74.59;99484.25;4975772;28;20046;-90
2021/12/24 00:39:38;;;;;;;7.07;3.30;;;;;;;10.64;74.75;99497.34;4971008;28;20038;-94
2021/12/24 00:42:04;;;;;;;6.72;4.40;;;;;;;10.72;73.69;99504.16;4956087;28;20406;-93
2021/12/24 00:44:29;;;;;;;6.28;3.33;;;;;;;10.27;73.85;99425.34;4951216;28;20030;-92
2021/12/24 00:46:55;;;;;;;7.97;4.57;;;;;;;10.70;73.55;99471.44;4979867;28;20038;-90
2021/12/24 00:49:20;;;;;;;10.73;5.20;;;;;;;10.36;73.18;99405.50;4975677;28;20116;-90
2021/12/24 00:57:24;;;;;;;7.60;3.15;;;;;;;10.78;72.88;99456.88;4971550;28;20041;-90
2021/12/24 00:59:50;;;;;;;5.20;3.10;;;;;;;10.98;73.38;99496.81;4955683;28;20422;-89
2021/12/24 01:02:15;;;;;;;9.07;4.18;;;;;;;11.01;72.82;99485.16;4971276;28;20026;-89
2021/12/24 01:04:40;;;;;;;9.15;4.28;;;;;;;10.80;72.43;99457.69;4971445;28;20370;-90
2021/12/24 01:07:06;;;;;;;6.85;3.40;;;;;;;11.00;72.95;99488.78;4970402;28;20062;-90
2021/12/24 01:09:31;;;;;;;13.40;3.92;;;;;;;10.94;72.52;99481.06;4974019;28;20042;-90
2021/12/24 01:11:57;;;;;;;5.93;3.30;;;;;;;10.86;72.81;99468.06;4963015;28;20023;-90
2021/12/24 01:14:23;;;;;;;6.57;3.72;;;;;;;10.66;71.84;99421.97;4954912;28;20026;-90
2021/12/24 01:17:05;;;;;;;7.32;3.85;;;;;;;10.98;73.00;99493.28;4984849;28;20022;-90
2021/12/24 01:19:30;;;;;;;6.30;3.53;;;;;;;10.72;72.77;99435.00;4951207;28;20073;-90
2021/12/24 01:24:29;;;;;;;7.03;3.60;;;;;;;10.45;72.19;99416.63;4973323;28;20121;-90
2021/12/24 01:27:25;;;;;;;5.32;3.40;;;;;;;10.95;72.63;99488.09;4971719;28;20080;-90
2021/12/24 01:30:03;;;;;;;6.30;3.20;;;;;;;10.97;73.05;99496.91;4971771;28;20600;-90
2021/12/24 01:38:24;;;;;;;5.38;3.38;;;;;;;10.78;74.98;99520.72;4929874;28;20038;-90
2021/12/24 01:41:04;;;;;;;5.57;3.25;;;;;;;10.72;74.40;99504.16;4955444;28;20039;-89
2021/12/24 01:43:29;;;;;;;5.18;3.30;;;;;;;10.39;74.49;99438.13;4972293;28;20058;-90
2021/12/24 01:45:56;;;;;;;7.25;3.88;;;;;;;10.78;75.04;99511.88;4955250;28;20065;-89
2021/12/24 01:48:22;;;;;;;5.43;2.92;;;;;;;10.86;74.47;99520.41;4971472;28;20457;-90
2021/12/24 01:50:51;;;;;;;6.28;3.42;;;;;;;10.73;74.71;99503.22;4954934;28;20125;-89
2021/12/24 01:53:20;;;;;;;5.75;3.13;;;;;;;10.80;75.33;99496.72;4947130;29;20031;-90
2021/12/24 01:55:48;;;;;;;7.70;3.67;;;;;;;10.85;75.63;99505.38;4950206;29;20023;-90
2021/12/24 01:58:19;;;;;;;7.03;3.75;;;;;;;10.78;74.97;99490.59;4952416;29;20023;-90
2021/12/24 02:00:46;;;;;;;6.32;3.22;;;;;;;10.83;74.75;99504.56;4952320;29;20042;-90
2021/12/24 02:03:13;;;;;;;7.32;3.63;;;;;;;10.81;75.42;99506.47;4950320;28;20015;-90
2021/12/24 02:05:40;;;;;;;6.88;3.95;;;;;;;10.56;75.85;99456.91;4971504;28;20031;-89
2021/12/24 02:08:08;;;;;;;5.88;3.40;;;;;;;10.41;75.48;99444.25;4968561;28;20078;-90
2021/12/24 02:10:34;;;;;;;9.27;4.25;;;;;;;10.69;75.34;99469.72;4970411;28;20483;-90
2021/12/24 02:13:00;;;;;;;10.38;4.00;;;;;;;10.61;75.86;99454.94;4970497;28;20077;-90
2021/12/24 02:29:35;;;;;;;9.82;3.63;;;;;;;10.58;76.99;99455.06;4953610;29;20038;-90
2021/12/24 02:32:00;;;;;;;6.53;3.42;;;;;;;10.44;77.35;99433.47;4980001;28;20027;-89
2021/12/24 02:34:26;;;;;;;10.43;3.42;;;;;;;10.68;77.95;99467.97;4973145;28;20041;-90
2021/12/24 02:36:51;;;;;;;7.60;3.72;;;;;;;10.52;77.80;99436.72;4946410;28;20391;-90
2021/12/24 02:39:17;;;;;;;7.25;4.18;;;;;;;10.60;77.52;99444.38;4973902;28;20038;-91
2021/12/24 02:41:42;;;;;;;6.35;3.63;;;;;;;10.60;77.97;99434.59;4958110;28;20034;-90
2021/12/24 02:44:08;;;;;;;7.15;3.58;;;;;;;10.69;77.82;99438.66;4974014;28;20054;-89
2021/12/24 02:47:03;;;;;;;10.25;3.70;;;;;;;10.36;76.85;99397.53;4980196;28;20106;-90
2021/12/24 02:53:55;;;;;;;8.95;3.80;;;;;;;10.63;77.16;99404.34;4958059;28;20027;-90
2021/12/24 02:54:48;;;;;;;6.70;3.45;;;;;;;10.83;76.12;99414.13;4977628;28;20510;-90
2021/12/24 02:57:16;;;;;;;7.53;4.10;;;;;;;10.80;76.46;99414.25;4975790;28;20022;-90
2021/12/24 02:59:57;;;;;;;9.95;4.00;;;;;;;10.32;76.55;99311.72;4974233;28;20410;-90
2021/12/24 03:02:23;;;;;;;7.78;4.07;;;;;;;10.75;75.89;99395.84;4974035;28;20015;-90
2021/12/24 03:04:48;;;;;;;6.72;3.50;;;;;;;10.85;76.19;99406.94;4973544;28;20042;-90
2021/12/24 03:07:16;;;;;;;7.28;3.60;;;;;;;10.84;76.23;99403.41;4974971;28;20023;-90
2021/12/24 03:09:41;;;;;;;7.60;3.60;;;;;;;10.92;75.95;99408.41;4957990;28;20039;-90
2021/12/24 03:12:07;;;;;;;7.47;3.63;;;;;;;10.41;76.63;99326.44;4974783;28;20475;-89
2021/12/24 03:14:33;;;;;;;6.63;3.40;;;;;;;10.56;76.54;99331.94;4967257;28;20027;-90
2021/12/24 03:17:01;;;;;;;8.88;3.97;;;;;;;10.85;76.73;99380.34;4972586;28;20019;-90
2021/12/24 03:19:31;;;;;;;6.07;3.60;;;;;;;10.96;76.21;99386.91;4968473;28;20153;-90
2021/12/24 03:22:05;;;;;;;7.07;3.67;;;;;;;11.00;76.09;99385.00;4973739;28;20019;-89
2021/12/24 03:24:34;;;;;;;7.18;3.65;;;;;;;11.02;76.34;99385.78;4957199;28;20062;-90
2021/12/24 03:26:59;;;;;;;8.10;3.33;;;;;;;10.85;77.00;99359.94;4973319;28;20023;-90
2021/12/24 03:29:24;;;;;;;7.32;3.13;;;;;;;10.94;77.10;99374.63;4973877;28;20050;-90
2021/12/24 03:31:52;;;;;;;6.45;3.35;;;;;;;11.00;76.82;99375.22;4974382;28;20470;-90
2021/12/24 03:34:20;;;;;;;7.22;3.40;;;;;;;10.99;76.92;99383.28;4973910;28;20049;-89
2021/12/24 03:36:46;;;;;;;7.97;3.33;;;;;;;11.03;76.72;99383.06;4974056;28;20031;-90
2021/12/24 03:39:13;;;;;;;8.07;3.78;;;;;;;11.06;76.33;99374.94;4971327;28;20027;-89
2021/12/24 03:41:39;;;;;;;6.78;3.30;;;;;;;10.82;77.00;99352.09;4955735;29;20035;-89
2021/12/24 03:44:09;;;;;;;6.43;3.30;;;;;;;10.97;76.45;99374.50;4959604;28;20430;-90
2021/12/24 03:46:44;;;;;;;9.93;3.20;;;;;;;10.66;76.38;99332.38;4974478;28;20025;-90
2021/12/24 03:49:19;;;;;;;5.65;3.03;;;;;;;10.63;76.40;99305.94;4971381;28;20037;-90
2021/12/24 03:51:54;;;;;;;6.88;3.05;;;;;;;10.53;76.44;99300.16;4956749;28;20032;-90
2021/12/24 03:57:05;;;;;;;7.68;3.53;;;;;;;10.98;77.41;99376.19;4974438;28;20414;-89
2021/12/24 03:59:30;;;;;;;5.30;2.88;;;;;;;10.75;77.63;99345.31;4973558;28;20027;-90
2021/12/24 04:01:56;;;;;;;6.90;3.22;;;;;;;10.83;78.62;99355.59;4974207;28;20027;-90
2021/12/24 04:04:21;;;;;;;5.82;3.70;;;;;;;10.86;78.36;99360.78;4972902;28;20388;-90
2021/12/24 04:06:47;;;;;;;7.55;3.65;;;;;;;10.67;78.16;99338.59;4972006;28;20026;-90
2021/12/24 04:09:12;;;;;;;6.05;3.45;;;;;;;10.84;78.57;99375.97;4973277;28;20047;-90
2021/12/24 04:11:39;;;;;;;6.55;3.38;;;;;;;10.82;78.96;99376.03;4971951;28;20538;-89
2021/12/24 04:14:05;;;;;;;6.20;3.10;;;;;;;10.83;78.22;99371.56;4985084;28;20109;-90
2021/12/24 04:16:31;;;;;;;5.97;3.42;;;;;;;10.72;79.38;99357.88;4985772;28;20663;-89
2021/12/24 04:24:51;;;;;;;6.53;3.50;;;;;;;10.83;79.50;99355.59;4987296;28;20090;-90
2021/12/24 04:24:51;;;;;;;7.50;3.50;;;;;;;10.64;79.41;99345.75;4973068;28;20120;-90
2021/12/24 04:27:18;;;;;;;7.45;3.50;;;;;;;10.57;79.41;99333.69;4956578;28;20521;-89
2021/12/24 04:29:44;;;;;;;11.15;3.88;;;;;;;10.41;79.92;99324.63;4973404;28;20398;-90
2021/12/24 04:32:14;;;;;;;6.57;3.10;;;;;;;10.60;80.74;99338.88;4979287;28;20019;-90
2021/12/24 04:34:44;;;;;;;7.28;3.60;;;;;;;10.56;80.08;99331.06;4968228;28;20134;-89
2021/12/24 05:03:44;;;;;;;13.77;4.53;;;;;;;10.50;82.13;99324.22;4956605;28;20038;-90
2021/12/24 05:08:49;;;;;;;5.88;2.63;;;;;;;10.39;82.72;99334.44;4972408;28;20086;-89
2021/12/24 05:11:16;;;;;;;10.05;3.65;;;;;;;10.30;84.11;99355.25;4973166;28;20117;-90
2021/12/24 05:13:41;;;;;;;8.45;3.30;;;;;;;10.35;84.43;99354.13;4952400;29;20035;-90
2021/12/24 05:17:21;;;;;;;9.57;3.65;;;;;;;10.36;83.76;99355.84;4963696;28;20027;-90
2021/12/24 05:21:35;;;;;;;8.18;3.00;;;;;;;10.12;83.54;99302.88;4964302;28;20117;-90
2021/12/24 05:24:12;;;;;;;6.43;3.30;;;;;;;10.27;84.13;99334.09;4950140;28;20030;-89
2021/12/24 05:26:39;;;;;;;6.45;3.47;;;;;;;10.40;84.09;99352.16;4970617;28;20042;-90
2021/12/24 05:29:05;;;;;;;6.15;3.03;;;;;;;10.34;84.26;99333.81;4973259;28;20027;-89
2021/12/24 05:31:32;;;;;;;5.55;2.83;;;;;;;10.48;83.62;99342.03;4950755;29;20038;-89
2021/12/24 05:33:58;;;;;;;6.13;3.28;;;;;;;10.57;83.84;99338.13;4950927;28;20201;-90
2021/12/24 05:36:23;;;;;;;7.70;2.53;;;;;;;10.50;82.97;99326.91;4954805;28;20109;-90
2021/12/24 05:38:49;;;;;;;7.47;3.47;;;;;;;10.52;82.93;99329.47;4953491;28;20570;-90
2021/12/24 05:41:15;;;;;;;5.90;2.67;;;;;;;10.50;82.90;99331.34;4970752;28;20137;-90
2021/12/24 05:43:41;;;;;;;10.75;2.92;;;;;;;10.39;82.99;99323.81;4971073;28;20158;-90
2021/12/24 05:46:07;;;;;;;6.53;2.97;;;;;;;10.42;83.63;99314.84;4972874;28;20026;-90
2021/12/24 05:48:32;;;;;;;12.48;3.30;;;;;;;10.51;83.59;99339.25;4970931;28;20031;-90
2021/12/24 05:50:58;;;;;;;4.18;2.38;;;;;;;10.48;82.72;99307.47;4971572;28;20542;-90
2021/12/24 05:53:27;;;;;;;6.85;3.13;;;;;;;10.60;82.47;99319.38;4972342;28;20038;-89
2021/12/24 05:55:52;;;;;;;5.75;2.75;;;;;;;10.66;82.34;99332.38;4970806;28;20030;-90
2021/12/24 05:58:19;;;;;;;8.43;3.13;;;;;;;10.48;82.22;99294.19;4971642;28;20486;-89
2021/12/24 06:00:46;;;;;;;4.78;2.80;;;;;;;10.40;82.41;99283.03;4970439;28;20070;-89
2021/12/24 06:03:11;;;;;;;4.10;2.72;;;;;;;10.56;82.11;99310.66;4972658;28;20053;-90
2021/12/24 06:05:38;;;;;;;6.15;2.75;;;;;;;10.61;81.87;99313.97;4954807;28;20113;-90
2021/12/24 06:08:05;;;;;;;6.13;2.70;;;;;;;10.24;81.86;99263.34;4950609;28;20047;-90
2021/12/24 06:10:33;;;;;;;5.53;2.72;;;;;;;10.60;82.55;99320.25;4936109;29;20031;-89
2021/12/24 06:12:59;;;;;;;7.43;3.15;;;;;;;10.71;81.60;99326.91;4937347;29;20391;-90
2021/12/24 06:15:26;;;;;;;6.70;2.97;;;;;;;10.69;82.23;99326.97;4956846;28;20484;-90
2021/12/24 06:17:55;;;;;;;6.53;3.05;;;;;;;10.86;81.65;99340.38;4946418;29;20027;-90
2021/12/24 06:20:22;;;;;;;5.20;2.97;;;;;;;10.83;82.33;99345.81;4954800;28;20521;-90
2021/12/24 06:22:49;;;;;;;5.47;2.75;;;;;;;10.67;81.82;99325.28;4955024;29;20114;-89
2021/12/24 06:25:17;;;;;;;6.25;2.83;;;;;;;10.35;81.89;99279.69;4938825;29;20106;-90
2021/12/24 06:27:43;;;;;;;9.45;2.92;;;;;;;10.39;81.72;99281.28;4938976;29;20403;-89
2021/12/24 06:30:09;;;;;;;5.25;2.80;;;;;;;10.57;82.30;99311.53;4956455;29;20031;-90
2021/12/24 06:32:41;;;;;;;10.10;3.50;;;;;;;10.46;82.25;99300.50;4956968;29;20021;-90
2021/12/24 06:35:09;;;;;;;3.97;2.40;;;;;;;10.63;82.66;99328.09;4956538;28;20031;-89
2021/12/24 06:37:37;;;;;;;9.00;2.75;;;;;;;10.77;83.47;99350.56;4951871;29;20024;-90
2021/12/24 06:40:03;;;;;;;5.13;2.63;;;;;;;10.26;83.33;99258.81;4954690;28;20031;-89
2021/12/24 06:42:29;;;;;;;7.78;2.65;;;;;;;10.15;83.31;99269.06;4958415;28;20534;-90
2021/12/24 06:44:54;;;;;;;8.88;3.03;;;;;;;10.70;83.79;99354.41;4954758;29;20029;-89
2021/12/24 06:47:20;;;;;;;12.20;3.90;;;;;;;10.15;84.03;99277.03;4956271;28;20031;-89
2021/12/24 06:49:45;;;;;;;9.98;2.97;;;;;;;10.62;84.13;99357.41;4938461;29;20042;-90
2021/12/24 06:52:11;;;;;;;31.25;10.25;;;;;;;10.47;84.95;99350.97;4938481;29;20090;-90
2021/12/24 06:54:36;;;;;;;21.17;14.00;;;;;;;10.45;84.53;99357.25;4943367;29;20031;-89
2021/12/24 06:57:02;;;;;;;33.35;12.93;;;;;;;10.45;84.75;99342.19;4935882;29;20506;-90
2021/12/24 06:59:29;;;;;;;38.83;14.27;;;;;;;10.46;84.74;99348.38;4954272;28;20050;-89
2021/12/24 07:01:59;;;;;;;13.32;5.32;;;;;;;10.44;84.92;99348.41;4953833;29;20078;-91
2021/12/24 07:04:25;;;;;;;10.07;5.53;;;;;;;10.36;84.75;99334.56;4954538;28;20502;-90
2021/12/24 07:06:51;;;;;;;12.00;6.60;;;;;;;10.21;84.65;99319.28;4955444;29;20023;-90
2021/12/24 07:09:16;;;;;;;12.10;5.43;;;;;;;10.47;84.88;99356.28;4950978;28;20062;-90
2021/12/24 07:11:42;;;;;;;12.48;6.88;;;;;;;9.88;85.78;99267.53;4972851;28;20043;-90
2021/12/24 07:14:08;;;;;;;10.43;5.85;;;;;;;10.44;85.54;99332.44;4972939;28;20037;-89
2021/12/24 07:16:34;;;;;;;11.52;7.25;;;;;;;10.35;85.56;99322.22;4974366;28;20078;-90
2021/12/24 07:18:59;;;;;;;15.85;6.40;;;;;;;10.47;86.33;99342.97;4957240;28;20335;-90
2021/12/24 07:21:24;;;;;;;10.13;4.05;;;;;;;10.32;86.84;99322.38;4959165;28;20022;-89
2021/12/24 07:23:50;;;;;;;7.88;3.10;;;;;;;10.48;87.32;99365.97;4954536;28;20402;-90
2021/12/24 07:26:16;;;;;;;7.15;3.15;;;;;;;10.35;88.17;99348.81;4975930;28;20049;-89
2021/12/24 07:28:41;;;;;;;6.88;3.55;;;;;;;10.05;88.59;99299.56;4976077;28;20031;-90
2021/12/24 07:31:07;;;;;;;7.97;3.58;;;;;;;9.82;89.11;99257.16;4990299;28;20029;-90
2021/12/24 07:33:33;;;;;;;9.70;3.22;;;;;;;10.11;89.69;99323.28;4956669;28;20494;-89
2021/12/24 07:35:58;;;;;;;7.00;3.70;;;;;;;10.30;89.60;99348.13;4960952;28;20030;-90
2021/12/24 07:38:24;;;;;;;6.90;3.25;;;;;;;10.34;89.43;99352.41;4967172;28;20034;-90
2021/12/24 07:40:50;;;;;;;7.03;4.10;;;;;;;10.23;89.82;99333.38;4957009;28;20035;-90
2021/12/24 07:43:17;;;;;;;6.82;3.47;;;;;;;9.85;90.14;99280.94;4972655;28;20088;-90
2021/12/24 07:45:44;;;;;;;9.52;5.30;;;;;;;9.78;90.28;99292.75;4974361;28;20030;-90
2021/12/24 07:48:15;;;;;;;11.15;4.22;;;;;;;9.83;90.56;99290.78;4972727;28;20113;-89
2021/12/24 07:53:15;;;;;;;8.48;4.20;;;;;;;10.19;91.09;99345.06;4974657;28;20034;-89
2021/12/24 07:55:41;;;;;;;7.03;3.88;;;;;;;10.05;92.66;99318.16;4972870;28;20041;-89
2021/12/24 07:58:08;;;;;;;11.23;4.18;;;;;;;10.17;93.44;99359.34;4973148;28;20055;-89
2021/12/24 08:00:35;;;;;;;10.80;5.90;;;;;;;9.81;93.41;99305.91;4965737;28;20065;-89
2021/12/24 08:03:03;;;;;;;8.27;4.40;;;;;;;9.96;94.26;99346.91;4970968;28;20027;-90
2021/12/24 08:05:30;;;;;;;7.38;4.63;;;;;;;9.93;94.64;99337.28;4972265;28;20376;-90
2021/12/24 08:07:56;;;;;;;6.95;3.95;;;;;;;9.97;95.51;99345.97;4972296;28;20031;-89
2021/12/24 08:10:24;;;;;;;8.05;3.90;;;;;;;9.81;95.74;99313.88;4963551;28;20062;-89
2021/12/24 08:12:51;;;;;;;8.90;4.10;;;;;;;9.83;96.19;99316.47;4972115;28;20022;-89
2021/12/24 08:15:17;;;;;;;7.80;3.95;;;;;;;10.07;96.61;99348.19;4955909;28;20061;-90
2021/12/24 08:17:44;;;;;;;7.38;4.47;;;;;;;10.02;96.42;99342.22;4955669;28;20038;-90
2021/12/24 08:20:11;;;;;;;7.20;3.58;;;;;;;10.06;97.03;99350.91;4971062;28;20113;-90
2021/12/24 08:22:37;;;;;;;8.07;4.10;;;;;;;9.90;97.65;99334.72;4955759;28;20553;-89
2021/12/24 08:25:06;;;;;;;12.57;4.70;;;;;;;9.99;98.95;99357.41;4972467;28;20058;-90
2021/12/24 08:27:33;;;;;;;11.18;4.38;;;;;;;9.82;99.13;99336.00;4972554;28;20034;-90
2021/12/24 08:29:59;;;;;;;7.78;4.95;;;;;;;9.75;99.43;99330.03;4972921;28;20070;-90
2021/12/24 08:32:25;;;;;;;8.70;4.93;;;;;;;9.82;100.00;99347.47;4971328;28;20129;-90
2021/12/24 08:34:52;;;;;;;10.80;4.60;;;;;;;9.45;100.00;99262.25;4973761;28;20658;-89
2021/12/24 08:37:18;;;;;;;8.55;4.80;;;;;;;9.95;100.00;99337.22;4971416;28;20026;-90
2021/12/24 08:39:43;;;;;;;8.80;4.03;;;;;;;9.93;100.00;99347.03;4973506;28;20347;-90
2021/12/24 08:42:09;;;;;;;9.02;5.03;;;;;;;9.95;100.00;99354.00;4973029;28;20029;-89
2021/12/24 08:44:35;;;;;;;9.88;4.38;;;;;;;9.82;100.00;99309.44;4972638;28;20034;-90
2021/12/24 08:47:01;;;;;;;8.82;4.57;;;;;;;9.49;100.00;99266.50;4976876;28;20138;-89
2021/12/24 08:49:27;;;;;;;9.52;4.65;;;;;;;9.78;100.00;99306.03;4971266;28;20053;-89
2021/12/24 08:51:53;;;;;;;7.75;4.28;;;;;;;10.01;100.00;99343.16;4972253;28;20525;-90
2021/12/24 08:54:21;;;;;;;9.73;4.05;;;;;;;9.66;100.00;99298.56;4959141;28;20038;-90
2021/12/24 08:56:47;;;;;;;6.05;3.83;;;;;;;9.91;100.00;99325.84;4966650;28;20045;-89
2021/12/24 08:59:13;;;;;;;7.38;4.05;;;;;;;10.01;100.00;99343.16;4964947;28;20031;-90
2021/12/24 09:01:42;;;;;;;6.53;3.75;;;;;;;9.77;100.00;99312.25;4962307;28;20030;-90
2021/12/24 09:04:08;;;;;;;7.13;3.90;;;;;;;9.89;100.00;99333.00;4971327;28;20018;-89
2021/12/24 09:06:33;;;;;;;10.02;4.50;;;;;;;9.74;100.00;99323.00;4972209;28;20041;-90
2021/12/24 09:08:59;;;;;;;14.85;5.63;;;;;;;9.82;100.00;99342.16;4963044;28;20039;-90
2021/12/24 09:11:26;;;;;;;10.52;5.03;;;;;;;9.74;100.00;99320.34;4955129;28;20045;-90
2021/12/24 09:13:51;;;;;;;9.95;5.00;;;;;;;9.93;100.00;99339.94;4945495;28;20027;-90
2021/12/24 09:16:17;;;;;;;8.70;4.32;;;;;;;9.86;100.00;99333.13;4955406;28;20114;-90
2021/12/24 09:18:43;;;;;;;9.05;4.88;;;;;;;10.03;100.00;99351.06;4954687;28;20035;-90
2021/12/24 09:21:19;;;;;;;11.73;4.63;;;;;;;10.04;100.00;99356.31;4970635;28;20478;-90
2021/12/24 09:23:48;;;;;;;7.55;3.70;;;;;;;9.75;100.00;99307.94;4968896;28;20022;-90
2021/12/24 09:26:13;;;;;;;6.38;4.20;;;;;;;9.93;100.00;99341.72;4954421;28;20037;-90
2021/12/24 09:28:39;;;;;;;8.68;4.72;;;;;;;9.85;100.00;99331.41;4970610;28;20035;-90
2021/12/24 09:31:05;;;;;;;7.88;4.00;;;;;;;9.59;100.00;99296.22;4971346;28;20033;-89
2021/12/24 09:33:30;;;;;;;7.97;3.95;;;;;;;9.65;100.00;99296.84;4971645;28;20042;-90
2021/12/24 09:35:56;;;;;;;7.45;4.13;;;;;;;9.56;100.00;99293.66;4971738;28;20391;-90
2021/12/24 09:38:21;;;;;;;6.88;3.97;;;;;;;9.89;100.00;99335.66;4967304;28;20510;-90
2021/12/24 09:40:47;;;;;;;8.25;4.28;;;;;;;10.00;100.00;99353.84;4936266;29;20098;-89
2021/12/24 09:43:13;;;;;;;9.13;4.13;;;;;;;9.92;100.00;99332.88;4942195;28;20030;-90
2021/12/24 09:45:38;;;;;;;12.07;4.35;;;;;;;9.74;100.00;99301.75;4955615;28;20094;-90
2021/12/24 09:48:05;;;;;;;9.20;4.50;;;;;;;9.86;100.00;99325.16;4970757;28;20023;-90
2021/12/24 09:50:31;;;;;;;7.90;4.40;;;;;;;9.75;100.00;99308.78;4972244;28;20729;-89
2021/12/24 09:52:57;;;;;;;10.50;5.70;;;;;;;9.66;100.00;99306.53;4956490;28;20031;-90
2021/12/24 09:55:25;;;;;;;8.82;5.75;;;;;;;9.65;100.00;99291.53;4954692;28;20035;-90
2021/12/24 09:57:51;;;;;;;10.82;4.22;;;;;;;9.86;100.00;99324.28;4970455;28;20386;-90
2021/12/24 10:00:19;;;;;;;8.95;5.22;;;;;;;9.91;100.00;99325.84;4954568;28;20141;-90
2021/12/24 10:02:49;;;;;;;9.77;4.97;;;;;;;10.08;100.00;99336.66;4971527;28;20505;-90
2021/12/24 10:05:28;;;;;;;10.27;5.95;;;;;;;9.62;100.00;99264.22;4957999;28;20109;-90
2021/12/24 10:08:06;;;;;;;10.65;5.95;;;;;;;9.93;100.00;99292.13;4971659;28;20479;-90
2021/12/24 10:10:33;;;;;;;9.40;4.93;;;;;;;10.17;100.00;99316.81;4971835;28;20399;-90
2021/12/24 10:13:23;;;;;;;10.73;5.50;;;;;;;10.09;100.00;99318.94;4955150;28;20023;-90
2021/12/24 10:16:01;;;;;;;11.82;5.78;;;;;;;10.02;100.00;99270.47;4980367;28;20491;-90
2021/12/24 10:18:32;;;;;;;9.30;4.60;;;;;;;10.06;100.00;99293.34;4986698;28;21031;-90
2021/12/24 10:21:03;;;;;;;8.00;4.75;;;;;;;9.68;100.00;99230.31;4954682;28;20597;-90
2021/12/24 10:23:42;;;;;;;9.48;5.68;;;;;;;10.10;100.00;99286.97;4970303;28;20019;-90
2021/12/24 10:26:28;;;;;;;8.77;4.47;;;;;;;10.02;100.00;99269.59;4972147;28;20105;-90
2021/12/24 10:28:59;;;;;;;8.15;3.95;;;;;;;10.19;100.00;99294.59;4971207;28;20058;-90
2021/12/24 10:31:34;;;;;;;9.75;5.40;;;;;;;10.24;100.00;99302.34;4966846;28;20031;-90
2021/12/24 10:34:11;;;;;;;6.93;4.45;;;;;;;10.24;100.00;99289.06;4975684;28;20344;-90
2021/12/24 10:36:57;;;;;;;8.93;4.97;;;;;;;10.27;100.00;99287.13;4971513;28;20037;-90
2021/12/24 10:39:30;;;;;;;9.50;4.97;;;;;;;10.29;100.00;99282.63;4939861;28;20034;-90
2021/12/24 10:41:57;;;;;;;7.60;4.28;;;;;;;10.22;100.00;99273.19;4954641;28;20037;-90
2021/12/24 10:44:24;;;;;;;10.10;4.78;;;;;;;10.30;100.00;99292.31;4955253;28;20035;-90
2021/12/24 10:46:56;;;;;;;7.72;4.30;;;;;;;10.32;100.00;99277.19;4971137;28;20044;-90
2021/12/24 10:49:36;;;;;;;8.75;4.38;;;;;;;9.83;100.00;99189.84;4969297;28;20035;-90
2021/12/24 10:52:28;;;;;;;7.47;3.92;;;;;;;10.13;100.00;99236.38;4954745;28;20475;-90
2021/12/24 10:54:55;;;;;;;7.28;3.38;;;;;;;10.37;100.00;99269.88;4951125;28;20024;-90
2021/12/24 10:57:27;;;;;;;7.75;4.75;;;;;;;10.38;100.00;99252.97;4971676;28;20422;-90
2021/12/24 10:59:56;;;;;;;7.70;3.50;;;;;;;10.51;100.00;99272.78;4972429;28;20023;-90
2021/12/24 11:02:32;;;;;;;6.55;3.83;;;;;;;10.42;100.00;99264.34;4974346;28;20026;-90
2021/12/24 11:04:58;;;;;;;7.25;3.53;;;;;;;10.34;100.00;99247.88;4991258;28;20030;-90
2021/12/24 11:07:33;;;;;;;8.85;3.55;;;;;;;10.54;100.00;99263.81;4983257;28;20034;-90
2021/12/24 11:10:12;;;;;;;11.57;3.72;;;;;;;10.58;100.00;99265.38;4988684;28;20494;-90
2021/12/24 11:12:43;;;;;;;7.35;3.95;;;;;;;10.50;100.00;99247.13;4988230;28;20030;-90
2021/12/24 11:15:27;;;;;;;10.10;3.80;;;;;;;10.44;100.00;99252.69;4973847;28;20023;-90
2021/12/24 11:18:00;;;;;;;6.07;3.50;;;;;;;10.51;100.00;99243.53;4973198;28;20035;-90
2021/12/24 11:20:31;;;;;;;6.60;4.13;;;;;;;10.61;100.00;99255.47;4969970;28;20460;-90
2021/12/24 11:23:00;;;;;;;6.65;3.10;;;;;;;10.63;100.00;99261.59;4943279;28;20101;-90
2021/12/24 11:25:28;;;;;;;7.10;3.70;;;;;;;10.61;100.00;99254.59;4957402;28;20043;-90
2021/12/24 11:27:54;;;;;;;5.47;3.08;;;;;;;10.49;100.00;99223.28;4957160;28;20030;-90
2021/12/24 11:30:21;;;;;;;8.45;4.30;;;;;;;10.25;100.00;99182.69;4957879;28;20119;-90
2021/12/24 11:32:47;;;;;;;6.20;3.53;;;;;;;10.76;100.00;99248.59;4976746;28;20026;-90
2021/12/24 11:35:14;;;;;;;7.32;3.50;;;;;;;10.66;100.00;99234.00;4973893;28;20542;-90
2021/12/24 11:37:44;;;;;;;5.20;3.10;;;;;;;10.71;100.00;99239.13;4974965;28;20053;-90
2021/12/24 11:40:14;;;;;;;6.97;3.08;;;;;;;10.75;100.00;99241.56;4958249;28;20027;-90
2021/12/24 11:42:53;;;;;;;7.45;3.50;;;;;;;10.67;100.00;99233.06;4978802;28;20029;-90
2021/12/24 11:45:23;;;;;;;4.15;2.80;;;;;;;10.20;100.00;99146.59;4975675;28;20259;-90
2021/12/24 11:47:51;;;;;;;5.80;2.97;;;;;;;10.62;100.00;99219.97;4974701;28;20113;-90
2021/12/24 11:50:17;;;;;;;7.28;3.42;;;;;;;10.73;100.00;99226.59;4976322;28;20015;-90
2021/12/24 11:52:46;;;;;;;4.85;3.05;;;;;;;10.77;100.00;99238.84;4976332;28;20019;-91
2021/12/24 11:55:12;;;;;;;4.97;3.00;;;;;;;10.61;100.00;99215.59;4969754;28;20027;-91
2021/12/24 11:57:50;;;;;;;5.57;3.50;;;;;;;10.82;100.00;99239.50;4971150;28;20450;-91
2021/12/24 12:00:22;;;;;;;6.03;3.42;;;;;;;10.64;100.00;99201.31;4977457;28;20054;-90
2021/12/24 12:02:50;;;;;;;5.57;3.65;;;;;;;10.70;100.00;99211.66;4978792;28;20015;-91
2021/12/24 12:05:35;;;;;;;6.78;3.38;;;;;;;10.79;100.00;99205.91;4975039;28;20030;-90
2021/12/24 12:08:23;;;;;;;7.60;4.13;;;;;;;10.89;100.00;99232.97;4955414;29;20574;-91
2021/12/24 12:10:54;;;;;;;6.15;3.33;;;;;;;10.92;100.00;99238.13;4954847;28;20585;-90
2021/12/24 12:13:42;;;;;;;6.93;3.33;;;;;;;10.92;100.00;99233.69;4962750;28;20073;-91
2021/12/24 12:16:29;;;;;;;5.72;3.63;;;;;;;10.79;100.00;99205.06;4960431;28;20031;-90
2021/12/24 12:19:26;;;;;;;7.38;4.82;;;;;;;10.78;100.00;99198.00;4952183;29;20039;-91
2021/12/24 12:24:57;;;;;;;7.88;3.67;;;;;;;10.96;100.00;99213.09;4974577;28;20586;-90
2021/12/24 12:27:54;;;;;;;7.68;3.47;;;;;;;10.91;100.00;99213.31;4972174;28;20126;-91
2021/12/24 12:30:27;;;;;;;6.68;3.90;;;;;;;10.78;100.00;99187.34;4977756;28;20423;-90
2021/12/24 12:33:11;;;;;;;10.20;4.45;;;;;;;10.74;100.00;99181.31;4974094;28;20029;-91
2021/12/24 12:35:50;;;;;;;9.40;3.72;;;;;;;10.92;100.00;99201.75;4970004;28;20110;-91
2021/12/24 12:38:27;;;;;;;10.95;5.78;;;;;;;10.93;100.00;99198.16;4946494;29;20031;-91
2021/12/24 12:41:14;;;;;;;8.75;4.45;;;;;;;10.71;100.00;99160.19;4968181;28;20379;-91
2021/12/24 12:43:39;;;;;;;11.73;4.72;;;;;;;10.77;100.00;99177.66;4971837;28;20054;-91
2021/12/24 12:46:05;;;;;;;8.70;4.28;;;;;;;10.90;100.00;99182.34;4969263;28;20116;-91
2021/12/24 12:48:48;;;;;;;8.45;4.60;;;;;;;10.83;100.00;99177.34;4955432;28;20026;-91
2021/12/24 12:51:13;;;;;;;9.43;4.65;;;;;;;10.72;100.00;99151.28;4988970;28;20079;-91
2021/12/24 12:53:41;;;;;;;7.18;4.22;;;;;;;10.89;100.00;99180.59;4955992;28;20546;-91
2021/12/24 12:56:31;;;;;;;7.88;5.38;;;;;;;10.91;100.00;99154.78;4971179;28;20617;-91
2021/12/24 12:59:04;;;;;;;17.60;4.28;;;;;;;10.99;100.00;99168.59;4946768;28;20018;-91
2021/12/24 13:01:30;;;;;;;6.30;3.60;;;;;;;11.16;100.00;99175.75;4955902;28;20166;-90
2021/12/24 13:03:56;;;;;;;6.22;3.78;;;;;;;11.17;100.00;99162.38;4975216;28;20034;-91
2021/12/24 13:06:38;;;;;;;7.38;4.35;;;;;;;11.21;100.00;99166.63;4971934;28;20027;-91
2021/12/24 13:09:06;;;;;;;9.00;4.30;;;;;;;10.89;100.00;99123.88;4975548;28;20066;-91
2021/12/24 13:11:39;;;;;;;11.10;4.72;;;;;;;11.22;100.00;99172.81;4954637;28;20507;-91